createdAt,value
2023-03-16T00:07:17.814Z,96.30
2023-03-16T00:17:23.280Z,97.83
2023-03-16T00:27:27.958Z,97.67
2023-03-16T00:37:33.984Z,86.50
2023-03-16T00:47:37.515Z,89.43
2023-03-16T00:57:42.392Z,89.50
2023-03-16T01:07:45.852Z,92.50
2023-03-16T01:17:51.866Z,97.20
2023-03-16T01:27:55.291Z,94.07
2023-03-16T01:38:00.155Z,99.37
2023-03-16T01:48:04.393Z,105.40
2023-03-16T01:58:09.872Z,102.57
2023-03-16T02:08:14.396Z,101.03
2023-03-16T02:18:23.095Z,98.67
2023-03-16T02:28:35.193Z,103.97
2023-03-16T02:38:40.289Z,98.97
2023-03-16T02:48:49.360Z,103.43
2023-03-16T02:58:54.836Z,102.37
2023-03-16T03:08:58.546Z,110.90
2023-03-16T03:19:03.970Z,108.93
2023-03-16T03:29:12.627Z,103.37
2023-03-16T03:39:18.702Z,102.37
2023-03-16T03:49:25.399Z,104.00
2023-03-16T03:59:30.512Z,110.57
2023-03-16T04:09:52.715Z,110.03
2023-03-16T04:20:12.986Z,107.33
2023-03-16T04:30:17.675Z,106.17
2023-03-16T04:40:27.442Z,110.47
2023-03-16T04:50:40.996Z,110.87
2023-03-16T05:00:46.471Z,114.60
2023-03-16T05:10:58.718Z,100.30
2023-03-16T05:21:07.843Z,113.13
2023-03-16T05:31:27.888Z,108.20
2023-03-16T05:41:37.471Z,108.80
2023-03-16T05:52:04.424Z,116.80
2023-03-16T06:02:12.566Z,111.63
2023-03-16T06:12:17.377Z,108.33
2023-03-16T06:22:24.031Z,106.60
2023-03-16T06:32:27.726Z,121.10
2023-03-16T06:42:33.708Z,112.80
2023-03-16T06:52:37.942Z,112.93
2023-03-16T07:02:43.855Z,112.27
2023-03-16T07:12:50.403Z,113.40
2023-03-16T07:22:55.455Z,126.67
2023-03-16T07:32:59.668Z,115.30
2023-03-16T07:43:05.300Z,112.27
2023-03-16T07:53:17.557Z,114.97
2023-03-16T08:03:28.780Z,114.90
2023-03-16T08:13:32.861Z,115.17
2023-03-16T08:23:38.246Z,116.80
2023-03-16T08:33:47.890Z,122.60
2023-03-16T08:43:56.691Z,122.20
2023-03-16T08:54:00.758Z,114.00
2023-03-16T09:04:05.722Z,128.63
2023-03-16T09:14:09.220Z,117.37
2023-03-16T09:24:14.397Z,116.00
2023-03-16T09:34:18.083Z,122.10
2023-03-16T09:44:36.582Z,119.13
2023-03-16T09:54:47.553Z,107.60
2023-03-16T10:05:06.564Z,107.13
2023-03-16T10:15:13.898Z,104.83
2023-03-16T10:25:25.250Z,104.30
2023-03-16T10:35:42.803Z,109.80
2023-03-16T10:45:48.434Z,101.87
2023-03-16T10:55:58.814Z,121.20
2023-03-16T11:06:07.598Z,115.57
2023-03-16T11:16:26.066Z,114.20
2023-03-16T11:26:35.584Z,121.33
2023-03-16T11:36:50.258Z,124.80
2023-03-16T11:47:02.542Z,114.60
2023-03-16T11:57:19.945Z,118.17
2023-03-16T12:07:42.987Z,120.77
2023-03-16T12:17:48.111Z,115.67
2023-03-16T12:27:56.297Z,109.63
2023-03-16T12:38:20.647Z,116.93
2023-03-16T12:48:32.017Z,119.10
2023-03-16T12:58:35.770Z,138.73
2023-03-16T13:08:49.412Z,135.55
2023-03-16T13:18:53.310Z,141.15
2023-03-16T13:28:58.662Z,129.40
2023-03-16T13:39:08.446Z,131.95
2023-03-16T13:49:15.004Z,135.27
2023-03-16T13:59:19.049Z,127.10
2023-03-16T14:09:28.740Z,105.03
2023-03-16T14:19:42.341Z,105.10
2023-03-16T14:29:54.408Z,106.00
2023-03-16T14:40:07.244Z,105.80
2023-03-16T14:50:18.810Z,108.43
2023-03-16T15:00:24.049Z,99.23
2023-03-16T15:10:31.977Z,118.43
2023-03-16T15:20:41.452Z,95.77
2023-03-16T15:30:48.995Z,96.43
2023-03-16T15:40:53.525Z,84.23
2023-03-16T15:51:02.230Z,89.23
2023-03-16T16:01:08.997Z,97.67
2023-03-16T16:11:17.951Z,88.80
2023-03-16T16:21:24.840Z,88.60
2023-03-16T16:31:31.684Z,88.77
2023-03-16T16:41:36.881Z,99.03
2023-03-16T16:51:42.771Z,86.27
2023-03-16T17:01:47.683Z,104.03
2023-03-16T17:11:54.148Z,86.23
2023-03-16T17:21:59.379Z,81.93
2023-03-16T17:32:11.502Z,83.87
2023-03-16T17:42:17.982Z,83.33
2023-03-16T17:52:25.835Z,84.77
2023-03-16T18:02:41.633Z,99.03
2023-03-16T18:12:47.216Z,84.67
2023-03-16T18:22:51.049Z,94.57
2023-03-16T18:32:59.282Z,97.53
2023-03-16T18:43:02.799Z,90.27
2023-03-16T18:53:10.314Z,91.03
2023-03-16T19:03:24.576Z,82.90
2023-03-16T19:13:29.886Z,89.60
2023-03-16T19:23:37.709Z,82.63
2023-03-16T19:33:42.645Z,91.87
2023-03-16T19:43:46.442Z,90.60
2023-03-16T19:53:53.779Z,97.77
2023-03-16T20:03:57.806Z,93.90
2023-03-16T20:14:03.705Z,90.20
2023-03-16T20:24:16.479Z,94.50
2023-03-16T20:34:24.672Z,86.07
2023-03-16T20:44:30.347Z,93.67
2023-03-16T20:54:35.952Z,98.23
2023-03-16T21:04:42.720Z,94.17
2023-03-16T21:14:48.965Z,105.77
2023-03-16T21:24:52.648Z,105.60
2023-03-16T21:34:59.454Z,97.63
2023-03-16T21:45:03.889Z,94.27
2023-03-16T21:55:23.735Z,110.27
2023-03-16T22:05:36.495Z,105.00
2023-03-16T22:15:43.603Z,99.37
2023-03-16T22:25:47.061Z,123.10
2023-03-16T22:35:53.483Z,110.97
2023-03-16T22:45:57.328Z,117.20
2023-03-16T22:56:02.575Z,105.57
2023-03-16T23:06:09.079Z,110.23
2023-03-16T23:16:22.168Z,112.03
2023-03-16T23:26:27.839Z,106.93
2023-03-16T23:36:33.580Z,111.67
2023-03-16T23:46:37.229Z,115.07
2023-03-16T23:56:42.137Z,116.03
